Accueil
METAR-TAF:

METAR-TAF

Aéroports :

Aéroport international de Wattay

Vientiane, Laos

latitude: 17-57N, longitude: 102-34E, altitude: 171 m

Observation

Le bulletin a été fait il y a 1 heure et 45 minutes, à 18:00 UTC
Vent calme
Température 26°C
Humidité 79%
Pression 1004 hPa
Visibilité: 5000 m
Nuages épars à une hauteur de 4000 ft
Nuages fragmentés à une hauteur de 8300 ft
brume,

METAR: VLVT 241800Z 00000KT 5000 BR SCT040 BKN083 26/22 Q1004 NOSIG

Heure: 02:45 (19:45 UTC)

Prévision

Le bulletin a été fait il y a 2 heures et 45 minutes, à 17:00 UTC
Prévision valable du 24 à 18 UTC au 25 à 18 UTC
Vent 4 kt de sud/sud-est
Visibilité: 5000 m
Nuages épars à une hauteur de 1600 ft
Nuages fragmentés à une hauteur de 8300 ft
brume,

TAF: VLVT 241700Z 2418/2518 16004KT 5000 BR SCT016 BKN083

Observations et prévisions météorologiques de plus de 4000 aéroports (messages METAR et TAF).

Les stations disponibles sont représentées par des disques jaunes et rouges sur la carte.

Passer la souris dessus pour voir le nom de la station.

Cliquer dessus pour voir les observations et prévisions météorologiques.

Pour changer de carte: cliquez sur les boutons verts avec une croix noire pour zoomer, sur le bouton vert avec un tiret pour effectuer un zoom arrière, ou sur les flèches vertes pour les cartes adjacentes.


METAR-TAF: